createdAt,value
2023-01-29T00:02:15.917Z,103167.25
2023-01-29T00:04:43.682Z,103219.66
2023-01-29T00:07:11.045Z,103210.06
2023-01-29T00:09:38.205Z,103189.97
2023-01-29T00:12:05.222Z,103168.13
2023-01-29T00:14:32.087Z,103199.56
2023-01-29T00:16:59.168Z,103211.81
2023-01-29T00:19:27.872Z,103159.38
2023-01-29T00:21:57.445Z,103150.63
2023-01-29T00:24:24.443Z,103157.63
2023-01-29T00:26:51.694Z,103220.56
2023-01-29T00:29:18.721Z,103148.88
2023-01-29T00:31:47.655Z,103140.16
2023-01-29T00:34:14.650Z,103134.03
2023-01-29T00:36:44.594Z,103135.78
2023-01-29T00:39:18.717Z,103137.53
2023-01-29T00:42:04.266Z,103205.69
2023-01-29T00:44:50.051Z,103171.59
2023-01-29T00:47:36.657Z,103207.44
2023-01-29T00:50:10.024Z,103127.03
2023-01-29T00:52:37.081Z,103119.19
2023-01-29T00:55:06.030Z,103109.56
2023-01-29T00:57:35.655Z,103142.78
2023-01-29T01:00:06.378Z,103121.78
2023-01-29T01:02:51.798Z,103151.50
2023-01-29T01:05:20.194Z,103178.56
2023-01-29T01:07:49.705Z,103119.19
2023-01-29T01:10:45.196Z,103119.19
2023-01-29T01:13:12.832Z,103176.84
2023-01-29T01:15:40.828Z,103213.56
2023-01-29T01:18:09.985Z,103203.94
2023-01-29T01:20:37.582Z,103148.88
2023-01-29T01:23:07.410Z,103126.16
2023-01-29T01:25:34.459Z,103181.22
2023-01-29T01:28:02.414Z,103131.41
2023-01-29T01:30:29.714Z,103128.78
2023-01-29T01:32:56.945Z,103142.78
2023-01-29T01:35:23.971Z,103121.81
2023-01-29T01:37:53.974Z,103138.41
2023-01-29T01:40:23.412Z,103148.88
2023-01-29T01:42:53.162Z,103133.16
2023-01-29T01:45:33.439Z,103155.88
2023-01-29T01:48:18.256Z,103169.84
2023-01-29T01:50:55.960Z,103140.16
2023-01-29T01:53:31.038Z,103156.75
2023-01-29T01:56:03.903Z,103150.63
2023-01-29T01:58:40.918Z,103144.53
2023-01-29T02:01:09.542Z,103168.09
2023-01-29T02:04:02.524Z,103127.91
2023-01-29T02:06:48.037Z,103201.31
2023-01-29T02:09:37.066Z,103157.59
2023-01-29T02:12:07.295Z,103135.75
2023-01-29T02:14:40.433Z,103137.50
2023-01-29T02:17:18.900Z,103202.16
2023-01-29T02:20:04.893Z,103144.50
2023-01-29T02:22:47.825Z,103221.41
2023-01-29T02:25:49.113Z,103210.94
2023-01-29T02:28:15.979Z,103220.53
2023-01-29T02:31:01.989Z,103225.81
2023-01-29T02:33:43.975Z,103223.19
2023-01-29T02:36:40.807Z,103216.19
2023-01-29T02:39:25.270Z,103165.47
2023-01-29T02:41:59.091Z,103216.19
2023-01-29T02:44:34.944Z,103214.44
2023-01-29T02:47:09.329Z,103159.38
2023-01-29T02:49:46.729Z,103132.28
2023-01-29T02:52:36.405Z,103149.75
2023-01-29T02:55:19.323Z,103136.63
2023-01-29T02:57:47.198Z,103189.09
2023-01-29T03:00:30.330Z,103122.66
2023-01-29T03:03:18.244Z,103112.19
2023-01-29T03:05:59.487Z,103118.31
2023-01-29T03:08:37.650Z,103116.56
2023-01-29T03:11:07.304Z,103142.75
2023-01-29T03:13:41.678Z,103180.34
2023-01-29T03:16:15.151Z,103172.47
2023-01-29T03:18:47.078Z,103101.72
2023-01-29T03:21:55.399Z,103147.09
2023-01-29T03:24:56.180Z,103159.34
2023-01-29T03:27:46.755Z,103091.22
2023-01-29T03:30:36.354Z,103124.38
2023-01-29T03:33:08.367Z,103157.59
2023-01-29T03:35:42.232Z,103079.88
2023-01-29T03:38:12.808Z,103074.63
2023-01-29T03:41:19.731Z,103118.28
2023-01-29T03:44:34.318Z,103146.22
2023-01-29T03:47:27.559Z,103066.75
2023-01-29T03:50:07.724Z,103067.63
2023-01-29T03:52:56.594Z,103093.81
2023-01-29T03:55:49.858Z,103068.50
2023-01-29T03:58:35.164Z,103132.25
2023-01-29T04:01:15.126Z,103133.97
2023-01-29T04:03:50.027Z,103055.41
2023-01-29T04:06:28.226Z,103058.88
2023-01-29T04:09:10.924Z,103069.38
2023-01-29T04:11:42.297Z,103085.97
2023-01-29T04:14:09.925Z,103066.75
2023-01-29T04:16:42.259Z,103055.41
2023-01-29T04:19:09.385Z,103096.44
2023-01-29T04:21:37.961Z,103105.19
2023-01-29T04:24:06.570Z,103060.66
2023-01-29T04:26:53.713Z,103063.25
2023-01-29T04:29:40.819Z,103120.00
2023-01-29T04:32:54.717Z,103037.94
2023-01-29T04:35:49.116Z,103044.06
2023-01-29T04:38:54.929Z,103111.28
2023-01-29T04:41:36.085Z,103049.28
2023-01-29T04:44:22.125Z,103024.84
2023-01-29T04:46:52.717Z,103091.19
2023-01-29T04:50:03.451Z,103042.28
2023-01-29T04:52:58.609Z,103040.53
2023-01-29T04:55:28.819Z,103085.94
2023-01-29T04:58:13.186Z,103051.91
2023-01-29T05:00:47.681Z,103047.53
2023-01-29T05:03:16.566Z,103061.50
2023-01-29T05:05:48.236Z,103007.38
2023-01-29T05:08:19.598Z,103016.97
2023-01-29T05:10:49.556Z,103055.38
2023-01-29T05:13:19.347Z,103088.53
2023-01-29T05:16:02.304Z,103023.97
2023-01-29T05:18:30.819Z,103098.13
2023-01-29T05:21:02.546Z,103051.88
2023-01-29T05:23:31.198Z,103046.63
2023-01-29T05:25:58.340Z,103045.75
2023-01-29T05:28:25.501Z,103087.66
2023-01-29T05:30:55.867Z,103017.81
2023-01-29T05:33:25.791Z,103016.09
2023-01-29T05:35:53.552Z,103046.66
2023-01-29T05:38:22.591Z,103016.09
2023-01-29T05:40:49.849Z,103026.53
2023-01-29T05:43:24.607Z,103083.25
2023-01-29T05:45:55.341Z,103081.50
2023-01-29T05:48:24.000Z,103010.81
2023-01-29T05:50:51.267Z,103025.63
2023-01-29T05:53:18.468Z,103038.75
2023-01-29T05:55:46.898Z,103023.00
2023-01-29T05:58:14.059Z,103040.41
2023-01-29T06:00:41.310Z,103038.69
2023-01-29T06:03:08.327Z,102955.84
2023-01-29T06:05:38.991Z,103008.16
2023-01-29T06:08:06.426Z,102965.44
2023-01-29T06:10:33.331Z,103034.31
2023-01-29T06:13:01.391Z,102989.84
2023-01-29T06:15:28.821Z,102961.06
2023-01-29T06:17:56.480Z,102958.44
2023-01-29T06:20:25.044Z,102985.50
2023-01-29T06:22:51.941Z,102993.28
2023-01-29T06:25:19.069Z,102970.63
2023-01-29T06:27:46.114Z,102980.22
2023-01-29T06:30:14.911Z,103025.59
2023-01-29T06:32:42.274Z,103003.81
2023-01-29T06:35:10.321Z,102988.09
2023-01-29T06:37:37.575Z,102975.91
2023-01-29T06:40:05.374Z,102983.75
2023-01-29T06:42:32.267Z,102990.72
2023-01-29T06:44:59.173Z,102985.50
2023-01-29T06:47:27.979Z,102940.13
2023-01-29T06:49:56.706Z,102952.34
2023-01-29T06:52:25.495Z,102978.47
2023-01-29T06:54:52.563Z,102943.59
2023-01-29T06:57:19.487Z,102978.47
2023-01-29T06:59:46.938Z,102939.25
2023-01-29T07:02:14.529Z,102938.38
2023-01-29T07:04:42.888Z,102983.72
2023-01-29T07:07:13.465Z,102958.41
2023-01-29T07:09:42.586Z,102934.84
2023-01-29T07:12:12.619Z,102985.47
2023-01-29T07:14:39.739Z,102974.16
2023-01-29T07:17:06.791Z,102975.88
2023-01-29T07:19:33.952Z,102999.47
2023-01-29T07:22:05.482Z,103006.44
2023-01-29T07:24:32.867Z,102999.44
2023-01-29T07:26:59.850Z,102972.41
2023-01-29T07:29:27.432Z,103009.91
2023-01-29T07:31:54.553Z,102967.16
2023-01-29T07:34:21.518Z,102944.50
2023-01-29T07:36:48.401Z,102943.59
2023-01-29T07:39:15.245Z,102947.09
2023-01-29T07:41:42.162Z,102969.75
2023-01-29T07:44:09.353Z,102983.72
2023-01-29T07:46:36.711Z,102920.88
2023-01-29T07:49:03.647Z,102969.75
2023-01-29T07:51:30.587Z,102934.84
2023-01-29T07:54:00.990Z,102987.16
2023-01-29T07:56:27.890Z,102951.44
2023-01-29T07:58:54.991Z,102935.72
2023-01-29T08:01:22.044Z,102940.97
2023-01-29T08:03:50.643Z,102982.81
2023-01-29T08:06:18.354Z,102955.75
2023-01-29T08:08:45.851Z,102957.53
2023-01-29T08:11:12.749Z,102994.16
2023-01-29T08:13:39.887Z,102976.66
2023-01-29T08:16:07.643Z,102925.25
2023-01-29T08:18:34.832Z,102915.66
2023-01-29T08:21:02.233Z,102941.78
2023-01-29T08:23:29.649Z,102910.38
2023-01-29T08:25:56.800Z,102971.41
2023-01-29T08:28:24.454Z,102914.72
2023-01-29T08:30:51.658Z,102907.75
2023-01-29T08:33:23.707Z,102921.69
2023-01-29T08:35:54.033Z,102929.50
2023-01-29T08:38:21.431Z,102901.59
2023-01-29T08:40:48.611Z,102910.31
2023-01-29T08:43:15.656Z,102880.63
2023-01-29T08:45:46.536Z,102885.88
2023-01-29T08:48:14.069Z,102913.72
2023-01-29T08:50:40.941Z,102916.38
2023-01-29T08:53:09.334Z,102915.44
2023-01-29T08:55:39.469Z,102869.25
2023-01-29T08:58:08.254Z,102864.88
2023-01-29T09:00:36.279Z,102922.38
2023-01-29T09:03:08.116Z,102932.81
2023-01-29T09:05:39.143Z,102931.09
2023-01-29T09:08:08.939Z,102876.16
2023-01-29T09:10:36.475Z,102881.38
2023-01-29T09:13:04.571Z,102879.59
2023-01-29T09:15:31.722Z,102917.13
2023-01-29T09:17:58.848Z,102929.25
2023-01-29T09:20:25.972Z,102861.34
2023-01-29T09:22:56.644Z,102903.13
2023-01-29T09:25:24.313Z,102864.69
2023-01-29T09:27:54.346Z,102860.38
2023-01-29T09:30:21.444Z,102911.78
2023-01-29T09:32:55.705Z,102890.91
2023-01-29T09:35:23.698Z,102869.97
2023-01-29T09:37:52.384Z,102894.34
2023-01-29T09:40:31.438Z,102939.66
2023-01-29T09:43:22.744Z,102912.59
2023-01-29T09:45:58.149Z,102933.53
2023-01-29T09:48:32.886Z,102860.28
2023-01-29T09:51:05.928Z,102920.44
2023-01-29T09:54:01.788Z,102874.22
2023-01-29T09:56:29.196Z,102845.41
2023-01-29T09:59:01.620Z,102848.91
2023-01-29T10:01:38.001Z,102868.09
2023-01-29T10:04:13.039Z,102907.25
2023-01-29T10:06:39.841Z,102904.63
2023-01-29T10:09:33.950Z,102905.50
2023-01-29T10:12:19.687Z,102902.88
2023-01-29T10:15:00.838Z,102908.13
2023-01-29T10:17:50.304Z,102896.72
2023-01-29T10:20:42.043Z,102892.31
2023-01-29T10:23:31.534Z,102874.03
2023-01-29T10:26:00.131Z,102879.22
2023-01-29T10:28:48.584Z,102887.88
2023-01-29T10:31:33.530Z,102888.69
2023-01-29T10:34:31.786Z,102883.41
2023-01-29T10:37:00.313Z,102879.91
2023-01-29T10:39:27.173Z,102878.09
2023-01-29T10:42:25.114Z,102874.59
2023-01-29T10:45:16.128Z,102871.97
2023-01-29T10:48:06.716Z,102864.94
2023-01-29T10:51:02.423Z,102869.25
2023-01-29T10:53:52.609Z,102864.88
2023-01-29T10:56:34.103Z,102855.28
2023-01-29T10:59:18.963Z,102859.69
2023-01-29T11:01:46.049Z,102808.22
2023-01-29T11:04:14.593Z,102860.53
2023-01-29T11:06:41.502Z,102854.47
2023-01-29T11:09:26.749Z,102835.28
2023-01-29T11:12:01.636Z,102846.63
2023-01-29T11:15:15.881Z,102831.75
2023-01-29T11:18:26.945Z,102809.16
2023-01-29T11:21:04.957Z,102765.63
2023-01-29T11:23:35.190Z,102769.91
2023-01-29T11:26:05.128Z,102761.25
2023-01-29T11:28:46.193Z,102767.31
2023-01-29T11:31:17.873Z,102789.97
2023-01-29T11:33:47.289Z,102752.59
2023-01-29T11:36:33.007Z,102744.72
2023-01-29T11:39:14.491Z,102791.63
2023-01-29T11:41:56.916Z,102788.97
2023-01-29T11:44:42.881Z,102798.50
2023-01-29T11:47:16.761Z,102745.38
2023-01-29T11:49:54.828Z,102734.09
2023-01-29T11:52:34.395Z,102764.50
2023-01-29T11:55:07.018Z,102759.28
2023-01-29T11:57:37.623Z,102756.66
2023-01-29T12:00:23.822Z,102701.94
2023-01-29T12:02:56.683Z,102750.53
2023-01-29T12:05:26.691Z,102735.69
2023-01-29T12:08:02.586Z,102711.38
2023-01-29T12:10:34.963Z,102764.34
2023-01-29T12:13:11.454Z,102758.25
2023-01-29T12:15:40.934Z,102682.59
2023-01-29T12:18:30.425Z,102693.97
2023-01-29T12:21:02.603Z,102700.84
2023-01-29T12:23:53.002Z,102688.63
2023-01-29T12:26:31.227Z,102694.63
2023-01-29T12:29:35.843Z,102732.06
2023-01-29T12:32:11.633Z,102720.69
2023-01-29T12:35:05.197Z,102715.41
2023-01-29T12:37:47.129Z,102709.28
2023-01-29T12:40:17.015Z,102692.75
2023-01-29T12:42:51.761Z,102693.47
2023-01-29T12:45:21.502Z,102606.38
2023-01-29T12:47:59.399Z,102591.44
2023-01-29T12:50:33.701Z,102641.78
2023-01-29T12:53:20.243Z,102582.59
2023-01-29T12:55:55.552Z,102604.31
2023-01-29T12:58:29.888Z,102561.66
2023-01-29T13:01:02.649Z,102567.75
2023-01-29T13:03:59.373Z,102619.78
2023-01-29T13:06:32.142Z,102557.09
2023-01-29T13:09:05.502Z,102540.66
2023-01-29T13:11:41.756Z,102532.75
2023-01-29T13:14:14.653Z,102586.50
2023-01-29T13:16:46.371Z,102551.84
2023-01-29T13:19:30.413Z,102504.78
2023-01-29T13:22:01.433Z,102512.66
2023-01-29T13:24:39.137Z,102552.53
2023-01-29T13:27:09.098Z,102536.09
2023-01-29T13:29:38.955Z,102570.78
2023-01-29T13:32:06.327Z,102495.28
2023-01-29T13:34:37.434Z,102534.41
2023-01-29T13:37:11.803Z,102543.06
2023-01-29T13:39:46.624Z,102537.81
2023-01-29T13:42:21.751Z,102566.44
2023-01-29T13:44:54.618Z,102524.75
2023-01-29T13:47:29.669Z,102548.19
2023-01-29T13:50:02.743Z,102525.53
2023-01-29T13:52:42.996Z,102516.72
2023-01-29T13:55:19.945Z,102555.84
2023-01-29T13:57:47.263Z,102547.03
2023-01-29T14:00:24.721Z,102546.16
2023-01-29T14:02:54.712Z,102545.25
2023-01-29T14:05:31.987Z,102534.66
2023-01-29T14:08:00.619Z,102511.28
2023-01-29T14:10:31.182Z,102531.09
2023-01-29T14:13:04.255Z,102539.81
2023-01-29T14:15:36.740Z,102519.81
2023-01-29T14:18:09.410Z,102462.41
2023-01-29T14:20:46.121Z,102509.03
2023-01-29T14:23:31.032Z,102511.56
2023-01-29T14:26:03.703Z,102480.31
2023-01-29T14:28:33.589Z,102449.72
2023-01-29T14:31:00.988Z,102435.03
2023-01-29T14:33:35.226Z,102435.88
2023-01-29T14:36:09.527Z,102425.41
2023-01-29T14:38:41.503Z,102466.91
2023-01-29T14:41:33.511Z,102458.25
2023-01-29T14:44:38.113Z,102489.38
2023-01-29T14:47:06.493Z,102472.03
2023-01-29T14:49:56.801Z,102428.75
2023-01-29T14:52:43.486Z,102442.63
2023-01-29T14:55:25.431Z,102415.81
2023-01-29T14:57:59.192Z,102437.47
2023-01-29T15:00:48.945Z,102420.16
2023-01-29T15:03:33.544Z,102479.91
2023-01-29T15:06:01.362Z,102445.25
2023-01-29T15:09:16.459Z,102470.22
2023-01-29T15:12:18.929Z,102400.75
2023-01-29T15:15:25.333Z,102464.03
2023-01-29T15:18:03.691Z,102410.09
2023-01-29T15:20:36.425Z,102394.69
2023-01-29T15:23:05.113Z,102411.94
2023-01-29T15:25:38.104Z,102398.03
2023-01-29T15:28:08.716Z,102374.66
2023-01-29T15:30:36.402Z,102376.47
2023-01-29T15:33:04.284Z,102431.13
2023-01-29T15:35:41.008Z,102405.97
2023-01-29T15:38:17.921Z,102379.06
2023-01-29T15:40:56.719Z,102436.19
2023-01-29T15:43:27.072Z,102363.47
2023-01-29T15:46:00.326Z,102401.56
2023-01-29T15:48:42.370Z,102425.97
2023-01-29T15:51:15.753Z,102448.53
2023-01-29T15:54:05.317Z,102395.72
2023-01-29T15:56:40.628Z,102418.25
2023-01-29T15:59:15.446Z,102416.38
2023-01-29T16:01:43.120Z,102400.03
2023-01-29T16:04:15.201Z,102369.72
2023-01-29T16:06:43.880Z,102412.16
2023-01-29T16:09:18.711Z,102391.28
2023-01-29T16:11:47.210Z,102404.44
2023-01-29T16:14:19.353Z,102426.84
2023-01-29T16:16:48.698Z,102390.66
2023-01-29T16:19:24.891Z,102424.19
2023-01-29T16:22:00.886Z,102394.75
2023-01-29T16:24:29.455Z,102351.47
2023-01-29T16:27:12.888Z,102419.09
2023-01-29T16:29:40.153Z,102365.16
2023-01-29T16:32:09.386Z,102349.59
2023-01-29T16:34:45.934Z,102380.78
2023-01-29T16:37:26.677Z,102399.91
2023-01-29T16:39:53.964Z,102410.34
2023-01-29T16:42:25.366Z,102339.22
2023-01-29T16:45:02.451Z,102408.56
2023-01-29T16:47:38.365Z,102366.97
2023-01-29T16:50:27.601Z,102406.81
2023-01-29T16:52:58.355Z,102340.06
2023-01-29T16:55:25.778Z,102386.94
2023-01-29T16:57:58.316Z,102379.94
2023-01-29T17:00:30.475Z,102332.25
2023-01-29T17:03:17.643Z,102339.19
2023-01-29T17:05:45.759Z,102353.88
2023-01-29T17:08:30.763Z,102394.56
2023-01-29T17:10:58.319Z,102342.63
2023-01-29T17:13:38.667Z,102331.25
2023-01-29T17:16:22.477Z,102352.81
2023-01-29T17:18:51.940Z,102302.50
2023-01-29T17:21:19.143Z,102297.28
2023-01-29T17:23:45.990Z,102338.09
2023-01-29T17:26:15.126Z,102307.69
2023-01-29T17:28:43.053Z,102310.22
2023-01-29T17:31:11.761Z,102329.31
2023-01-29T17:33:44.243Z,102326.72
2023-01-29T17:36:17.723Z,102279.06
2023-01-29T17:38:45.958Z,102325.97
2023-01-29T17:41:27.028Z,102295.59
2023-01-29T17:43:54.784Z,102346.75
2023-01-29T17:46:21.857Z,102260.13
2023-01-29T17:48:50.045Z,102287.06
2023-01-29T17:51:18.302Z,102286.94
2023-01-29T17:53:47.011Z,102270.53
2023-01-29T17:56:17.466Z,102255.00
2023-01-29T17:58:44.258Z,102275.75
2023-01-29T18:01:11.542Z,102267.09
2023-01-29T18:03:39.807Z,102254.91
2023-01-29T18:06:09.193Z,102240.97
2023-01-29T18:08:38.343Z,102285.97
2023-01-29T18:11:07.299Z,102253.91
2023-01-29T18:13:36.345Z,102244.38
2023-01-29T18:16:03.768Z,102233.06
2023-01-29T18:18:30.766Z,102273.75
2023-01-29T18:20:58.863Z,102226.06
2023-01-29T18:23:25.870Z,102263.25
2023-01-29T18:25:54.863Z,102266.72
2023-01-29T18:28:22.233Z,102219.16
2023-01-29T18:30:53.398Z,102199.03
2023-01-29T18:33:26.180Z,102209.38
2023-01-29T18:36:10.597Z,102171.13
2023-01-29T18:38:52.142Z,102249.94
2023-01-29T18:41:36.261Z,102204.13
2023-01-29T18:44:12.207Z,102180.56
2023-01-29T18:46:39.309Z,102154.63
2023-01-29T18:49:06.608Z,102169.44
2023-01-29T18:51:35.695Z,102168.44
2023-01-29T18:54:05.612Z,102202.25
2023-01-29T18:57:11.114Z,102232.53
2023-01-29T18:59:33.429Z,102171.13
2023-01-29T19:02:01.825Z,102169.41
2023-01-29T19:04:32.107Z,102173.00
2023-01-29T19:06:59.395Z,102186.84
2023-01-29T19:09:26.608Z,102192.19
2023-01-29T19:11:53.586Z,102180.78
2023-01-29T19:14:20.905Z,102186.53
2023-01-29T19:16:51.242Z,102153.84
2023-01-29T19:19:19.237Z,102151.06
2023-01-29T19:21:59.162Z,102131.09
2023-01-29T19:27:35.956Z,102145.66
2023-01-29T19:30:09.780Z,102131.81
2023-01-29T19:35:36.917Z,102131.88
2023-01-29T19:38:25.331Z,102137.16
2023-01-29T19:41:13.313Z,102163.81
2023-01-29T19:43:57.948Z,102126.59
2023-01-29T19:46:50.074Z,102156.84
2023-01-29T19:49:35.485Z,102119.50
2023-01-29T19:52:41.392Z,102156.94
2023-01-29T19:55:22.778Z,102155.88
2023-01-29T19:58:05.293Z,102129.88
2023-01-29T20:00:35.672Z,102191.19
2023-01-29T20:03:46.951Z,102129.88
2023-01-29T20:06:39.251Z,102132.28
2023-01-29T20:09:15.340Z,102171.88
2023-01-29T20:12:09.851Z,102118.28
2023-01-29T20:14:49.035Z,102098.31
2023-01-29T20:17:26.347Z,102147.72
2023-01-29T20:19:53.515Z,102101.66
2023-01-29T20:22:21.269Z,102117.50
2023-01-29T20:24:48.334Z,102138.25
2023-01-29T20:27:33.886Z,102106.16
2023-01-29T20:30:02.372Z,102156.13
2023-01-29T20:32:39.674Z,102165.66
2023-01-29T20:38:17.432Z,102113.78
2023-01-29T20:41:08.241Z,102116.44
2023-01-29T20:47:00.180Z,102132.50
2023-01-29T20:49:28.906Z,102102.00
2023-01-29T20:51:57.099Z,102097.41
2023-01-29T20:54:39.238Z,102094.63
2023-01-29T20:57:09.092Z,102083.09
2023-01-29T20:59:41.728Z,102085.38
2023-01-29T21:02:13.756Z,102129.31
2023-01-29T21:04:42.562Z,102083.47
2023-01-29T21:07:27.582Z,102108.72
2023-01-29T21:10:21.491Z,102102.84
2023-01-29T21:12:56.997Z,102083.03
2023-01-29T21:15:40.694Z,102080.47
2023-01-29T21:18:16.613Z,102122.25
2023-01-29T21:20:47.729Z,102094.00
2023-01-29T21:26:35.976Z,102113.75
2023-01-29T21:29:30.446Z,102067.56
2023-01-29T21:35:28.101Z,102028.38
2023-01-29T21:38:38.151Z,102037.69
2023-01-29T21:41:24.844Z,102008.97
2023-01-29T21:44:04.669Z,102030.28
2023-01-29T21:46:46.392Z,102019.75
2023-01-29T21:49:20.816Z,101992.59
2023-01-29T21:51:50.306Z,101975.38
2023-01-29T21:54:37.275Z,101996.81
2023-01-29T21:57:54.615Z,101956.28
2023-01-29T22:00:28.606Z,101996.94
2023-01-29T22:06:33.497Z,102023.66
2023-01-29T22:09:24.902Z,101995.09
2023-01-29T22:12:01.339Z,101958.91
2023-01-29T22:14:46.819Z,101951.03
2023-01-29T22:17:27.098Z,101945.72
2023-01-29T22:19:56.633Z,101947.41
2023-01-29T22:22:53.718Z,101959.53
2023-01-29T22:25:37.841Z,101949.84
2023-01-29T22:28:30.686Z,101945.56
2023-01-29T22:31:18.517Z,101936.72
2023-01-29T22:36:48.035Z,101906.19
2023-01-29T22:39:25.909Z,101889.44
2023-01-29T22:42:20.774Z,101908.66
2023-01-29T22:45:37.577Z,101906.97
2023-01-29T22:51:30.936Z,101919.03
2023-01-29T22:54:09.002Z,101928.63
2023-01-29T22:56:39.387Z,101920.75
2023-01-29T22:59:22.822Z,101915.50
2023-01-29T23:02:09.297Z,101924.72
2023-01-29T23:04:58.294Z,101903.31
2023-01-29T23:07:45.227Z,101893.63
2023-01-29T23:10:26.787Z,101890.06
2023-01-29T23:15:59.487Z,101885.69
2023-01-29T23:18:32.835Z,101888.13
2023-01-29T23:21:27.543Z,101938.53
2023-01-29T23:24:08.208Z,101879.84
2023-01-29T23:27:01.974Z,101872.88
2023-01-29T23:29:32.245Z,101858.66
2023-01-29T23:32:13.242Z,101855.06
2023-01-29T23:35:05.149Z,101849.72
2023-01-29T23:37:35.108Z,101878.22
2023-01-29T23:40:03.526Z,101896.31
2023-01-29T23:42:30.725Z,101868.19
2023-01-29T23:44:57.713Z,101882.66
2023-01-29T23:47:24.889Z,101898.41
2023-01-29T23:49:53.327Z,101871.47
2023-01-29T23:52:22.260Z,101864.63
2023-01-29T23:54:52.475Z,101853.75
2023-01-29T23:57:30.116Z,101876.59
